Nearby METAR Reports

 

KPRB - Paso Robles, California, USA
Distance from station: SW 1mi, 1km
Updated: 10/19/2014 7:53pm
NOT Current
Clear
Clear
 Wind from S
Wind: S 12 mph , 19 km/h
Temperature: 64°F , 18°C
Dew Point: 54°F , 12°C
Humidity: 68%
Barometer: 29.88 inHg , 1011.9 hPa
Clouds: Clear
Visibility: 10 miles , 16 km
2014/10/20 02:53 KPRB 200253Z AUTO 19010KT 10SM CLR 18/12 A2988 RMK AO2 SLP115 T01830122 53014 TSNO
KSBP - San Luis Obispo, California, USA
Distance from station: S 30mi, 49km
Updated: 10/19/2014 7:56pm
NOT Current
Overcast
Overcast
 Wind from NNW
Wind: NNW 9 mph , 15 km/h
Temperature: 63°F , 17°C
Dew Point: 57°F , 14°C
Humidity: 83%
Barometer: 29.90 inHg , 1012.5 hPa
Clouds: Overcast
Visibility: 10 miles , 16 km
Cloud details: Overcast 1000 ft
2014/10/20 02:56 KSBP 200256Z AUTO 33008KT 10SM OVC010 17/14 A2990 RMK AO2 SLP125 T01670144 53012
 
KSMX - Santa Maria, California, USA
Distance from station: S 54mi, 87km
Updated: 10/19/2014 8:29pm
Overcast
Overcast
 Wind from WNW
Wind: WNW 8 mph , 13 km/h
Temperature: 66°F , 19°C
Dew Point: 61°F , 16°C
Humidity: 83%
Barometer: 29.91 inHg , 1012.9 hPa
Clouds: Overcast
Visibility: 10 miles , 16 km
Cloud details: Overcast 1100 ft
2014/10/20 03:29 KSMX 200329Z AUTO 29007KT 10SM OVC011 19/16 A2991 RMK AO2 CIG 008V014 T01890156
KNLC - Lemoore Nas/Reev, California, USA
Distance from station: NE 58mi, 94km
Updated: 10/19/2014 7:56pm
NOT Current
Clear
Clear
 Wind from calm
Wind: Calm
Temperature: 72°F , 22°C
Dew Point: 50°F , 10°C
Humidity: 47%
Barometer: 29.85 inHg , 1010.8 hPa
Clouds: Clear
Visibility: 9 miles , 14 km
2014/10/20 02:56 KNLC 200256Z 00000KT 9SM CLR 22/10 A2985 RMK AO2 SLP106 T02170094 53008 $
 
KVBG - Vandenberg Afb, California, USA
Distance from station: S 65mi, 105km
Updated: 10/19/2014 7:55pm
NOT Current
Overcast
Overcast
 Wind from NW
Wind: NW 10 mph , 17 km/h
Temperature: 63°F , 17°C
Dew Point: 61°F , 16°C
Humidity: 94%
Barometer: 29.92 inHg , 1013.2 hPa
Clouds: Overcast
Visibility: 10 miles , 16 km
Cloud details: Overcast 800 ft
2014/10/20 02:55 KVBG 200255Z AUTO 31009KT 10SM OVC008 17/16 A2992 RMK AO2 SLP122 T01720156 53009 TSNO $
KLPC - Lompoc, California, USA
Distance from station: S 70mi, 113km
Updated: 10/19/2014 8:15pm
Overcast
Overcast
 Wind from WNW
Wind: WNW 8 mph , 13 km/h
Temperature: 64°F , 18°C
Dew Point: 55°F , 13°C
Humidity: 73%
Barometer: 29.91 inHg , 1012.9 hPa
Clouds: Overcast
Visibility: 10 miles , 16 km
Cloud details: Overcast 1200 ft
2014/10/20 03:15 KLPC 200315Z AUTO 30007KT 10SM OVC012 18/13 A2991 RMK AO1
 
KHJO - Hanford, California, USA
Distance from station: NE 72mi, 116km
Updated: 10/19/2014 7:53pm
NOT Current
Clear
Clear
 Wind from calm
Wind: Calm
Temperature: 70°F , 21°C
Dew Point: 52°F , 11°C
Humidity: 53%
Barometer: 29.84 inHg , 1010.5 hPa
Clouds: Clear
Visibility: 10 miles , 16 km
2014/10/20 02:53 KHJO 200253Z AUTO 00000KT 10SM CLR 21/11 A2984 RMK AO2 SLP107 T02110106 53006